Time,TemperatureF,DewpointF,PressureIn,WindDirection,WindDirectionDegrees,WindSpeedMPH,WindSpeedGustMPH,Humidity,HourlyPrecipIn,Conditions,Clouds,dailyrainin,SoftwareType,DateUTC
2013-03-10 00:07:00,58.2,32.0,30.05,SSE,163,0.0,-999.0,37,-99.99,,,0.00,weatherlink.com 1.10,2013-03-10 05:07:00,
2013-03-10 00:22:00,58.1,31.0,30.04,South,176,1.0,-999.0,36,-99.99,,,0.00,weatherlink.com 1.10,2013-03-10 05:22:00,
2013-03-10 00:37:00,58.6,32.0,30.04,South,190,4.0,-999.0,36,-99.99,,,0.00,weatherlink.com 1.10,2013-03-10 05:37:00,
2013-03-10 00:52:00,58.8,31.0,30.04,SSW,195,1.0,-999.0,35,-99.99,,,0.00,weatherlink.com 1.10,2013-03-10 05:52:00,
2013-03-10 01:07:00,58.8,31.0,30.05,SSW,192,0.0,-999.0,35,-99.99,,,0.00,weatherlink.com 1.10,2013-03-10 06:07:00,
2013-03-10 01:22:00,58.4,31.0,30.04,South,189,6.0,-999.0,36,-99.99,,,0.00,weatherlink.com 1.10,2013-03-10 06:22:00,
2013-03-10 01:37:00,58.2,32.0,30.04,South,184,0.0,-999.0,37,-99.99,,,0.00,weatherlink.com 1.10,2013-03-10 06:37:00,
2013-03-10 01:52:00,57.7,31.0,30.04,South,184,2.0,-999.0,37,-99.99,,,0.00,weatherlink.com 1.10,2013-03-10 06:52:00,
2013-03-10 03:07:00,58.0,32.0,30.04,South,184,0.0,-999.0,38,-99.99,,,0.00,weatherlink.com 1.10,2013-03-10 07:07:00,
2013-03-10 03:22:00,57.1,32.0,30.03,South,185,0.0,-999.0,39,-99.99,,,0.00,weatherlink.com 1.10,2013-03-10 07:22:00,
2013-03-10 03:37:00,56.7,32.0,30.02,South,187,0.0,-999.0,40,-99.99,,,0.00,weatherlink.com 1.10,2013-03-10 07:37:00,
2013-03-10 03:52:00,56.8,32.0,30.01,SSW,194,0.0,-999.0,39,-99.99,,,0.00,weatherlink.com 1.10,2013-03-10 07:52:00,
2013-03-10 04:07:00,57.3,31.0,30.01,South,186,3.0,-999.0,37,-99.99,,,0.00,weatherlink.com 1.10,2013-03-10 08:07:00,
2013-03-10 04:22:00,57.5,31.0,30.00,SSW,192,1.0,-999.0,37,-99.99,,,0.00,weatherlink.com 1.10,2013-03-10 08:22:00,
2013-03-10 04:37:00,58.2,31.0,30.00,SSW,212,4.0,-999.0,36,-99.99,,,0.00,weatherlink.com 1.10,2013-03-10 08:37:00,
2013-03-10 04:52:00,58.6,32.0,30.00,SSW,208,0.0,-999.0,36,-99.99,,,0.00,weatherlink.com 1.10,2013-03-10 08:52:00,
2013-03-10 05:07:00,57.8,31.0,30.00,SSW,208,0.0,-999.0,36,-99.99,,,0.00,weatherlink.com 1.10,2013-03-10 09:07:00,
2013-03-10 05:22:00,57.3,31.0,30.00,SSW,213,0.0,-999.0,37,-99.99,,,0.00,weatherlink.com 1.10,2013-03-10 09:22:00,
2013-03-10 05:37:00,56.5,31.0,30.00,SSW,213,0.0,-999.0,38,-99.99,,,0.00,weatherlink.com 1.10,2013-03-10 09:37:00,
2013-03-10 05:52:00,56.0,31.0,30.00,SSW,211,0.0,-999.0,38,-99.99,,,0.00,weatherlink.com 1.10,2013-03-10 09:52:00,
2013-03-10 06:07:00,56.4,31.0,30.00,SSW,203,0.0,-999.0,38,-99.99,,,0.00,weatherlink.com 1.10,2013-03-10 10:07:00,
2013-03-10 06:22:00,56.7,32.0,30.00,South,187,4.0,-999.0,39,-99.99,,,0.00,weatherlink.com 1.10,2013-03-10 10:22:00,
2013-03-10 06:37:00,57.2,32.0,30.00,SSW,207,0.0,-999.0,38,-99.99,,,0.00,weatherlink.com 1.10,2013-03-10 10:37:00,
2013-03-10 06:52:00,57.6,31.0,30.00,South,184,0.0,-999.0,37,-99.99,,,0.00,weatherlink.com 1.10,2013-03-10 10:52:00,
2013-03-10 07:07:00,57.6,31.0,30.00,South,186,0.0,-999.0,37,-99.99,,,0.00,weatherlink.com 1.10,2013-03-10 11:07:00,
2013-03-10 07:22:00,56.9,32.0,30.00,South,177,0.0,-999.0,39,-99.99,,,0.00,weatherlink.com 1.10,2013-03-10 11:22:00,
2013-03-10 07:37:00,56.4,32.0,30.00,South,177,1.0,-999.0,39,-99.99,,,0.00,weatherlink.com 1.10,2013-03-10 11:37:00,
2013-03-10 07:52:00,55.8,33.0,30.00,South,169,0.0,-999.0,42,-99.99,,,0.00,weatherlink.com 1.10,2013-03-10 11:52:00,
2013-03-10 08:07:00,54.6,33.0,30.00,South,169,0.0,-999.0,45,-99.99,,,0.00,weatherlink.com 1.10,2013-03-10 12:07:00,
2013-03-10 08:22:00,54.5,33.0,30.01,South,169,0.0,-999.0,45,-99.99,,,0.00,weatherlink.com 1.10,2013-03-10 12:22:00,
2013-03-10 08:37:00,54.0,33.0,30.02,South,169,0.0,-999.0,46,-99.99,,,0.00,weatherlink.com 1.10,2013-03-10 12:37:00,
2013-03-10 08:52:00,53.8,36.0,30.03,South,169,0.0,-999.0,52,-99.99,,,0.00,weatherlink.com 1.10,2013-03-10 12:52:00,
2013-03-10 09:07:00,54.2,36.0,30.03,South,169,0.0,-999.0,51,-99.99,,,0.00,weatherlink.com 1.10,2013-03-10 13:07:00,
2013-03-10 09:22:00,55.1,38.0,30.03,South,169,0.0,-999.0,53,-99.99,,,0.00,weatherlink.com 1.10,2013-03-10 13:22:00,
2013-03-10 09:37:00,57.8,34.0,30.02,SSW,202,4.0,-999.0,41,-99.99,,,0.00,weatherlink.com 1.10,2013-03-10 13:37:00,
2013-03-10 09:52:00,59.4,33.0,30.02,SSW,197,6.0,-999.0,37,-99.99,,,0.00,weatherlink.com 1.10,2013-03-10 13:52:00,
2013-03-10 10:07:00,60.7,34.0,30.02,SSW,197,0.0,-999.0,37,-99.99,,,0.00,weatherlink.com 1.10,2013-03-10 14:07:00,
2013-03-10 10:22:00,61.5,33.0,30.03,SW,236,5.0,-999.0,34,-99.99,,,0.00,weatherlink.com 1.10,2013-03-10 14:22:00,
2013-03-10 10:37:00,61.6,32.0,30.02,SW,215,6.0,-999.0,33,-99.99,,,0.00,weatherlink.com 1.10,2013-03-10 14:37:00,
2013-03-10 10:53:00,61.6,32.0,30.01,SW,218,0.0,-999.0,33,-99.99,,,0.00,weatherlink.com 1.10,2013-03-10 14:53:00,
2013-03-10 11:08:00,61.9,33.0,30.01,South,183,6.0,-999.0,34,-99.99,,,0.00,weatherlink.com 1.10,2013-03-10 15:08:00,
2013-03-10 11:23:00,62.2,33.0,30.00,SSW,198,0.0,-999.0,33,-99.99,,,0.00,weatherlink.com 1.10,2013-03-10 15:23:00,
2013-03-10 11:38:00,62.9,32.0,30.00,SSW,196,1.0,-999.0,31,-99.99,,,0.00,weatherlink.com 1.10,2013-03-10 15:38:00,
2013-03-10 11:53:00,64.2,33.0,29.99,SE,136,8.0,-999.0,31,-99.99,,,0.00,weatherlink.com 1.10,2013-03-10 15:53:00,
2013-03-10 12:08:00,64.1,32.0,29.99,SSE,165,6.0,-999.0,30,-99.99,,,0.00,weatherlink.com 1.10,2013-03-10 16:08:00,
2013-03-10 12:23:00,64.2,33.0,29.99,South,182,0.0,-999.0,31,-99.99,,,0.00,weatherlink.com 1.10,2013-03-10 16:23:00,
2013-03-10 12:38:00,65.8,33.0,29.99,SSE,160,7.0,-999.0,30,-99.99,,,0.00,weatherlink.com 1.10,2013-03-10 16:38:00,
2013-03-10 12:53:00,66.8,32.0,29.99,South,190,0.0,-999.0,27,-99.99,,,0.00,weatherlink.com 1.10,2013-03-10 16:53:00,
2013-03-10 13:08:00,67.8,32.0,29.98,SSE,164,9.0,-999.0,26,-99.99,,,0.00,weatherlink.com 1.10,2013-03-10 17:08:00,
2013-03-10 13:23:00,67.5,35.0,29.97,SE,143,0.0,-999.0,30,-99.99,,,0.00,weatherlink.com 1.10,2013-03-10 17:23:00,
2013-03-10 13:38:00,68.1,31.0,29.97,WSW,247,4.0,-999.0,25,-99.99,,,0.00,weatherlink.com 1.10,2013-03-10 17:38:00,
2013-03-10 13:53:00,68.6,32.0,29.96,SW,217,0.0,-999.0,26,-99.99,,,0.00,weatherlink.com 1.10,2013-03-10 17:53:00,
2013-03-10 14:08:00,69.4,34.0,29.96,SW,215,5.0,-999.0,27,-99.99,,,0.00,weatherlink.com 1.10,2013-03-10 18:08:00,
2013-03-10 14:23:00,70.5,33.0,29.97,West,267,9.0,-999.0,25,-99.99,,,0.00,weatherlink.com 1.10,2013-03-10 18:23:00,
2013-03-10 14:38:00,71.0,32.0,29.95,SSW,212,0.0,-999.0,24,-99.99,,,0.00,weatherlink.com 1.10,2013-03-10 18:38:00,
2013-03-10 14:53:00,71.3,32.0,29.93,South,178,8.0,-999.0,23,-99.99,,,0.00,weatherlink.com 1.10,2013-03-10 18:53:00,
2013-03-10 15:08:00,71.6,31.0,29.91,SSE,165,6.0,-999.0,22,-99.99,,,0.00,weatherlink.com 1.10,2013-03-10 19:08:00,
2013-03-10 15:23:00,71.7,31.0,29.91,South,179,0.0,-999.0,22,-99.99,,,0.00,weatherlink.com 1.10,2013-03-10 19:23:00,
2013-03-10 15:38:00,71.7,33.0,29.91,SW,232,5.0,-999.0,24,-99.99,,,0.00,weatherlink.com 1.10,2013-03-10 19:38:00,
2013-03-10 15:53:00,72.4,34.0,29.89,SW,228,2.0,-999.0,24,-99.99,,,0.00,weatherlink.com 1.10,2013-03-10 19:53:00,
2013-03-10 16:08:00,72.3,32.0,29.89,South,173,4.0,-999.0,23,-99.99,,,0.00,weatherlink.com 1.10,2013-03-10 20:08:00,
2013-03-10 16:23:00,73.2,31.0,29.90,SSW,202,4.0,-999.0,21,-99.99,,,0.00,weatherlink.com 1.10,2013-03-10 20:23:00,
2013-03-10 16:38:00,72.9,32.0,29.90,SSW,193,7.0,-999.0,22,-99.99,,,0.00,weatherlink.com 1.10,2013-03-10 20:38:00,
2013-03-10 16:53:00,72.7,32.0,29.89,SW,215,7.0,-999.0,22,-99.99,,,0.00,weatherlink.com 1.10,2013-03-10 20:53:00,
2013-03-10 17:08:00,72.5,30.0,29.89,South,191,6.0,-999.0,21,-99.99,,,0.00,weatherlink.com 1.10,2013-03-10 21:08:00,
2013-03-10 17:23:00,72.0,31.0,29.90,South,181,3.0,-999.0,22,-99.99,,,0.00,weatherlink.com 1.10,2013-03-10 21:23:00,
2013-03-10 17:38:00,71.6,32.0,29.89,South,176,6.0,-999.0,23,-99.99,,,0.00,weatherlink.com 1.10,2013-03-10 21:38:00,
2013-03-10 17:53:00,71.3,30.0,29.88,SSE,155,0.0,-999.0,22,-99.99,,,0.00,weatherlink.com 1.10,2013-03-10 21:53:00,
2013-03-10 18:08:00,71.3,30.0,29.88,SSW,196,4.0,-999.0,22,-99.99,,,0.00,weatherlink.com 1.10,2013-03-10 22:08:00,
2013-03-10 18:24:00,71.0,30.0,29.86,South,190,5.0,-999.0,22,-99.99,,,0.00,weatherlink.com 1.10,2013-03-10 22:24:00,
2013-03-10 18:39:00,70.5,30.0,29.85,South,171,4.0,-999.0,22,-99.99,,,0.00,weatherlink.com 1.10,2013-03-10 22:39:00,
2013-03-10 18:54:00,70.1,29.0,29.86,SSW,194,2.0,-999.0,22,-99.99,,,0.00,weatherlink.com 1.10,2013-03-10 22:54:00,
2013-03-10 19:09:00,69.8,30.0,29.86,South,190,5.0,-999.0,23,-99.99,,,0.00,weatherlink.com 1.10,2013-03-10 23:09:00,
2013-03-10 19:24:00,69.6,29.0,29.86,SSW,194,1.0,-999.0,22,-99.99,,,0.00,weatherlink.com 1.10,2013-03-10 23:24:00,
2013-03-10 19:39:00,69.3,30.0,29.86,South,175,2.0,-999.0,23,-99.99,,,0.00,weatherlink.com 1.10,2013-03-10 23:39:00,
2013-03-10 19:54:00,69.6,30.0,29.85,SSW,199,1.0,-999.0,23,-99.99,,,0.00,weatherlink.com 1.10,2013-03-10 23:54:00,
2013-03-10 20:09:00,69.1,31.0,29.84,South,176,0.0,-999.0,24,-99.99,,,0.00,weatherlink.com 1.10,2013-03-11 00:09:00,
2013-03-10 20:24:00,68.7,31.0,29.84,SSW,194,2.0,-999.0,25,-99.99,,,0.00,weatherlink.com 1.10,2013-03-11 00:24:00,
2013-03-10 20:39:00,68.7,31.0,29.84,ESE,119,9.0,-999.0,25,-99.99,,,0.00,weatherlink.com 1.10,2013-03-11 00:39:00,
2013-03-10 20:54:00,68.5,31.0,29.84,SSE,165,6.0,-999.0,25,-99.99,,,0.00,weatherlink.com 1.10,2013-03-11 00:54:00,
2013-03-10 21:09:00,68.3,32.0,29.82,SSW,203,0.0,-999.0,26,-99.99,,,0.00,weatherlink.com 1.10,2013-03-11 01:09:00,
2013-03-10 21:24:00,68.3,33.0,29.82,SSE,155,6.0,-999.0,27,-99.99,,,0.00,weatherlink.com 1.10,2013-03-11 01:24:00,
2013-03-10 21:39:00,68.1,33.0,29.82,South,191,7.0,-999.0,27,-99.99,,,0.00,weatherlink.com 1.10,2013-03-11 01:39:00,
2013-03-10 21:54:00,68.1,33.0,29.83,SSE,159,7.0,-999.0,27,-99.99,,,0.00,weatherlink.com 1.10,2013-03-11 01:54:00,
2013-03-10 22:09:00,68.0,34.0,29.83,South,180,2.0,-999.0,28,-99.99,,,0.00,weatherlink.com 1.10,2013-03-11 02:09:00,
2013-03-10 22:24:00,67.7,34.0,29.83,South,181,2.0,-999.0,29,-99.99,,,0.00,weatherlink.com 1.10,2013-03-11 02:24:00,
2013-03-10 22:39:00,67.6,33.0,29.83,South,179,8.0,-999.0,28,-99.99,,,0.00,weatherlink.com 1.10,2013-03-11 02:39:00,
2013-03-10 22:54:00,67.3,34.0,29.83,SSE,164,2.0,-999.0,29,-99.99,,,0.00,weatherlink.com 1.10,2013-03-11 02:54:00,
2013-03-10 23:09:00,66.8,34.0,29.83,South,177,4.0,-999.0,30,-99.99,,,0.00,weatherlink.com 1.10,2013-03-11 03:09:00,
2013-03-10 23:24:00,66.7,34.0,29.83,South,190,0.0,-999.0,30,-99.99,,,0.00,weatherlink.com 1.10,2013-03-11 03:24:00,
2013-03-10 23:39:00,66.4,35.0,29.82,SSE,165,5.0,-999.0,31,-99.99,,,0.00,weatherlink.com 1.10,2013-03-11 03:39:00,
2013-03-10 23:54:00,66.5,34.0,29.82,South,177,5.0,-999.0,30,-99.99,,,0.00,weatherlink.com 1.10,2013-03-11 03:54:00,